createdAt,value
2018-12-30T05:01:01.079Z,11.40
2018-12-30T05:03:23.543Z,11.80
2018-12-30T05:05:46.045Z,10.13
2018-12-30T05:08:21.301Z,11.43
2018-12-30T05:10:56.455Z,11.50
2018-12-30T05:13:31.203Z,11.57
2018-12-30T06:00:18.254Z,10.30
2018-12-30T06:03:00.266Z,10.90
2018-12-30T06:05:35.108Z,10.53
2018-12-30T06:08:10.283Z,10.63
2018-12-30T06:10:45.547Z,10.80
2018-12-30T06:13:20.454Z,11.40
2018-12-30T07:02:51.194Z,9.83
2018-12-30T07:05:28.183Z,9.37
2018-12-30T07:08:03.449Z,9.67
2018-12-30T07:10:38.956Z,9.63
2018-12-30T07:13:14.191Z,8.93
2018-12-30T08:00:20.035Z,7.50
2018-12-30T08:02:42.590Z,7.63
2018-12-30T08:05:05.171Z,8.23
2018-12-30T08:07:27.649Z,8.33
2018-12-30T08:09:50.107Z,7.87
2018-12-30T08:12:12.535Z,7.10
2018-12-30T08:14:35.086Z,7.40
2018-12-30T10:02:54.074Z,5.83
2018-12-30T10:05:29.411Z,6.87
2018-12-30T10:08:04.427Z,6.97
2018-12-30T10:10:39.279Z,6.83
2018-12-30T10:13:14.374Z,6.03
2018-12-30T11:01:00.223Z,4.80
2018-12-30T11:03:23.870Z,5.47
2018-12-30T11:05:46.375Z,4.60
2018-12-30T11:08:08.914Z,3.80
2018-12-30T11:10:31.658Z,4.60
2018-12-30T11:13:09.238Z,4.50
2018-12-30T11:18:24.125Z,3.60
2018-12-30T11:20:46.671Z,4.03
2018-12-30T11:23:09.897Z,4.17
2018-12-30T11:25:32.421Z,4.47
2018-12-30T12:00:48.430Z,5.00
2018-12-30T12:03:23.317Z,4.73
2018-12-30T12:05:58.562Z,4.80
2018-12-30T12:08:33.472Z,4.57
2018-12-30T12:10:55.922Z,4.60
2018-12-30T12:13:31.387Z,4.30
2018-12-30T13:00:18.732Z,6.23
2018-12-30T13:02:41.231Z,5.90
2018-12-30T13:05:03.848Z,6.27
2018-12-30T13:07:26.391Z,7.10
2018-12-30T13:09:48.858Z,7.77
2018-12-30T13:12:11.454Z,8.03
2018-12-30T13:14:34.312Z,5.87
2018-12-30T14:02:49.732Z,6.70
2018-12-30T14:05:25.343Z,6.50
2018-12-30T14:08:00.785Z,6.17
2018-12-30T14:10:35.741Z,6.23
2018-12-30T14:13:08.708Z,6.10
2018-12-30T15:05:38.539Z,6.50
2018-12-30T15:08:15.863Z,6.43
2018-12-30T15:10:50.880Z,6.60
2018-12-30T15:13:26.036Z,6.40
2018-12-30T16:02:51.048Z,12.07
2018-12-30T16:05:25.982Z,11.00
2018-12-30T16:08:01.529Z,11.77
2018-12-30T16:10:36.447Z,12.30
2018-12-30T16:13:12.580Z,9.83
2018-12-30T17:00:16.455Z,10.40
2018-12-30T17:02:52.053Z,8.37
2018-12-30T17:05:27.162Z,7.23
2018-12-30T17:08:02.306Z,7.50
2018-12-30T17:10:37.238Z,7.93
2018-12-30T17:13:12.500Z,7.63
2018-12-30T18:00:17.022Z,6.73
2018-12-30T18:02:52.731Z,7.10
2018-12-30T18:05:27.807Z,6.57
2018-12-30T18:08:02.840Z,6.80
2018-12-30T18:10:37.800Z,7.43
2018-12-30T19:02:34.060Z,6.50
2018-12-30T19:05:09.284Z,7.40
2018-12-30T19:07:44.473Z,6.80
2018-12-30T19:10:19.423Z,6.97
2018-12-30T19:12:54.622Z,6.43
2018-12-30T20:01:51.511Z,7.30
2018-12-30T20:04:26.571Z,7.47
2018-12-30T20:07:07.939Z,7.70
2018-12-30T21:02:50.014Z,9.83
2018-12-30T21:05:25.013Z,10.00
2018-12-30T21:08:00.139Z,10.07
2018-12-30T21:10:35.122Z,9.63
2018-12-30T21:13:10.354Z,11.13
